KTEB/TEB METAR and TAF weather

Enter ICAO airport designator
Station Type Date Time Source
KTEB METAR 2019/12/08 03:51 UTC NOAA

KTEB 080351Z 34003KT 10SM CLR M02/M09 A3050 RMK AO2 SLP329 T10171094


Station Type Date Time Source
KTEB Decoded METAR 2019/12/08 03:51 UTC NOAA

TETERBORO AIRPORT, NJ, United States (KTEB) 40-52N 74-03W 7M
Dec 07, 2019 - 10:51 PM EST / 2019.12.08 0351 UTC
Wind: from the NNW (340 degrees) at 3 MPH (3 KT):0
Visibility: 10 mile(s):0
Sky conditions: clear
Temperature: 28.9 F (-1.7 C)
Dew Point: 15.1 F (-9.4 C)
Relative Humidity: 55%
Pressure (altimeter): 30.5 in. Hg (1032 hPa)
ob: KTEB 080351Z 34003KT 10SM CLR M02/M09 A3050 RMK AO2 SLP329 T10171094
cycle: 4

Station Type Date Time Source
KTEB TAF 2019/12/08 03:40 UTC NOAA

TAF
AMD KTEB 080238Z 0803/0906 34005KT P6SM SKC
FM080700 VRB03KT P6SM FEW250
FM081500 17004KT P6SM SCT250
FM081700 19007G15KT P6SM FEW040 BKN250
FM090400 22004KT 5SM BR BKN060

Example: see airport list